Strona główna
METAR-TAF:

METAR-TAF

Lotnisko :

Port lotniczy Caen-Carpiquet

Caen, Francja

Szerokość geograficzna: 49-11N, Długość geograficzna: 000-27W, wysokość: 78 m

Aktualna obserwacja pogody

Raport powstał 33 minut temu, godzina 02:00 UTC
Wiatr 3 kt z kierunków zmiennych
Temperatura 2°C
Wilgotność 87%
Ciśnienie 1024 hPa
Widzialność 10 km lub więcej
Brak chmur poniżej 1500 m i brak chmur cumulonimbus

METAR: LFRK 010200Z AUTO VRB03KT CAVOK 02/M00 Q1024

czas: 04:33 (02:33 UTC)

Prognoza

Raport powstał 18 godziny i 33 minut temu, godzina 08:00 UTC
Prognoza ważna od 31 godzina 09 UTC do 31 godzina 18 UTC
Wiatr 12 kt od wschodnio-północny wschód
Widzialność 10 km lub więcej
Brak chmur poniżej 1500 m i brak chmur cumulonimbus
Przejściowo
od 31 godzina 09 UTC do 31 godzina 11 UTC
Przerywane chmury na wysokości 1000 ft
Przejściowo
od 31 godzina 13 UTC do 31 godzina 18 UTC
Wiatr 15 kt od północny wschód w porywach dochodzący do 28 kt

TAF: LFRK 310800Z 3109/3118 06012KT CAVOK TEMPO 3109/3111 BKN010 TEMPO 3113/3118 05015G28KT

Obserwacja i prognoza pogody dla ponad 4000 lotnisk (raport METAR i TAF).

Dostępne stacje oznaczono żółtymi i czerwonymi punktami na mapie.

Najedź kursorem aby zobaczyć nazwę stacji.

Kliknij aby zobaczyć obserwacje i prognozy pogody.

Aby zmienić mapę: kliknij na zielony przycisk z czarnym krzyżykiem, aby powiększyć; na zielony przycisk z myślnikiem, aby pomniejszyć; na zielone strzałki, aby przejść do map sąsiednich.


METAR-TAF: